createdAt,value
2018-12-25T00:02:29.113Z,1.71
2018-12-25T00:07:31.201Z,1.54
2018-12-25T00:12:33.312Z,1.48
2018-12-25T00:17:35.442Z,1.53
2018-12-25T00:22:37.527Z,1.76
2018-12-25T00:27:39.574Z,1.80
2018-12-25T00:32:41.670Z,1.64
2018-12-25T00:37:43.914Z,1.66
2018-12-25T00:42:45.842Z,1.44
2018-12-25T00:47:47.954Z,1.28
2018-12-25T00:52:49.973Z,1.33
2018-12-25T00:57:52.041Z,1.21
2018-12-25T01:02:54.125Z,1.04
2018-12-25T01:07:56.151Z,1.12
2018-12-25T01:12:58.204Z,1.21
2018-12-25T01:18:00.238Z,1.13
2018-12-25T01:23:02.273Z,1.03
2018-12-25T01:28:04.727Z,1.08
2018-12-25T01:33:06.923Z,0.95
2018-12-25T01:38:08.930Z,0.86
2018-12-25T01:43:11.291Z,0.73
2018-12-25T01:48:13.352Z,0.76
2018-12-25T01:53:15.506Z,0.46
2018-12-25T01:58:17.572Z,0.61
2018-12-25T02:03:19.556Z,0.47
2018-12-25T02:08:21.771Z,0.60
2018-12-25T02:13:23.811Z,0.46
2018-12-25T02:18:26.009Z,0.53
2018-12-25T02:23:28.043Z,0.59
2018-12-25T02:28:30.071Z,0.40
2018-12-25T02:33:32.101Z,0.53
2018-12-25T02:38:34.194Z,0.42
2018-12-25T02:43:36.608Z,0.35
2018-12-25T02:48:38.800Z,0.29
2018-12-25T02:53:40.806Z,0.17
2018-12-25T02:58:44.669Z,0.04
2018-12-25T03:03:46.715Z,0.14
2018-12-25T03:08:49.049Z,0.40
2018-12-25T03:13:51.043Z,0.35
2018-12-25T03:18:53.076Z,0.49
2018-12-25T03:23:55.143Z,0.31
2018-12-25T03:28:57.216Z,0.41
2018-12-25T03:33:59.228Z,0.39
2018-12-25T03:39:01.331Z,0.55
2018-12-25T03:44:03.353Z,0.59
2018-12-25T03:49:05.432Z,0.60
2018-12-25T03:54:07.498Z,0.66
2018-12-25T03:59:09.509Z,0.41
2018-12-25T04:04:11.540Z,0.70
2018-12-25T04:09:13.529Z,0.77
2018-12-25T04:14:15.736Z,0.77
2018-12-25T04:19:17.954Z,0.69
2018-12-25T04:24:19.998Z,0.90
2018-12-25T04:29:22.073Z,0.93
2018-12-25T04:34:24.075Z,0.95
2018-12-25T04:39:26.452Z,0.95
2018-12-25T04:44:28.759Z,0.96
2018-12-25T04:49:30.942Z,1.03
2018-12-25T04:54:32.947Z,1.16
2018-12-25T04:59:35.049Z,0.97
2018-12-25T05:04:37.114Z,0.88
2018-12-25T05:09:39.134Z,0.80
2018-12-25T05:14:41.232Z,0.84
2018-12-25T05:19:43.275Z,0.93
2018-12-25T05:24:45.324Z,0.97
2018-12-25T05:29:47.370Z,0.81
2018-12-25T05:34:49.695Z,0.88
2018-12-25T05:39:51.770Z,0.90
2018-12-25T05:44:53.840Z,0.90
2018-12-25T05:49:55.846Z,0.85
2018-12-25T05:54:57.933Z,0.88
2018-12-25T06:00:00.291Z,0.89
2018-12-25T06:05:02.340Z,0.88
2018-12-25T06:10:04.521Z,0.94
2018-12-25T06:15:06.581Z,0.74
2018-12-25T06:20:08.604Z,0.80
2018-12-25T06:25:10.791Z,0.81
2018-12-25T06:30:13.101Z,0.71
2018-12-25T06:35:15.163Z,0.75
2018-12-25T06:40:17.209Z,0.82
2018-12-25T06:45:19.248Z,0.88
2018-12-25T06:50:21.706Z,0.58
2018-12-25T06:55:24.999Z,0.77
2018-12-25T07:00:26.991Z,0.68
2018-12-25T07:05:29.033Z,0.78
2018-12-25T07:10:31.095Z,0.76
2018-12-25T07:15:33.561Z,0.68
2018-12-25T07:20:36.001Z,0.75
2018-12-25T07:25:38.041Z,0.70
2018-12-25T07:30:40.224Z,0.58
2018-12-25T07:35:42.242Z,0.58
2018-12-25T07:40:44.288Z,0.58
2018-12-25T07:45:46.254Z,0.59
2018-12-25T07:50:48.372Z,0.67
2018-12-25T07:55:50.934Z,0.60
2018-12-25T08:00:52.981Z,0.65
2018-12-25T08:05:54.976Z,0.67
2018-12-25T08:10:57.232Z,0.66
2018-12-25T08:15:59.267Z,0.65
2018-12-25T08:21:01.306Z,0.64
2018-12-25T08:26:03.344Z,0.70
2018-12-25T08:31:05.360Z,0.64
2018-12-25T08:36:07.381Z,0.67
2018-12-25T08:41:09.822Z,0.77
2018-12-25T08:46:11.853Z,0.93
2018-12-25T08:51:13.931Z,0.77
2018-12-25T08:56:16.119Z,0.82
2018-12-25T09:01:18.163Z,0.98
2018-12-25T09:06:20.394Z,0.95
2018-12-25T09:11:22.723Z,0.92
2018-12-25T09:16:26.659Z,1.01
2018-12-25T09:21:28.706Z,1.10
2018-12-25T09:26:30.674Z,1.13
2018-12-25T09:31:32.661Z,1.29
2018-12-25T09:36:34.712Z,1.27
2018-12-25T09:41:36.679Z,1.40
2018-12-25T09:46:38.673Z,1.46
2018-12-25T09:51:40.744Z,1.37
2018-12-25T09:56:43.010Z,1.46
2018-12-25T10:01:45.137Z,1.43
2018-12-25T10:06:47.180Z,1.40
2018-12-25T10:11:49.542Z,1.49
2018-12-25T10:16:52.010Z,1.57
2018-12-25T10:21:54.015Z,1.58
2018-12-25T10:26:56.049Z,1.64
2018-12-25T10:31:58.101Z,1.64
2018-12-25T10:37:02.190Z,1.61
2018-12-25T10:42:04.287Z,1.70
2018-12-25T10:47:06.328Z,1.70
2018-12-25T10:52:11.801Z,1.78
2018-12-25T10:57:12.414Z,1.71
2018-12-25T11:02:14.750Z,1.85
2018-12-25T11:07:16.884Z,1.85
2018-12-25T11:12:19.067Z,1.87
2018-12-25T11:17:21.061Z,1.96
2018-12-25T11:22:23.105Z,2.01
2018-12-25T11:27:25.138Z,2.23
2018-12-25T11:32:27.197Z,2.28
2018-12-25T11:37:29.245Z,2.53
2018-12-25T11:42:31.292Z,2.53
2018-12-25T11:47:33.318Z,2.56
2018-12-25T11:52:35.550Z,2.78
2018-12-25T11:57:37.619Z,2.78
2018-12-25T12:02:39.605Z,2.99
2018-12-25T12:07:41.672Z,2.91
2018-12-25T12:12:43.736Z,2.94
2018-12-25T12:17:48.311Z,2.91
2018-12-25T12:22:50.380Z,2.96
2018-12-25T12:27:53.111Z,2.84
2018-12-25T12:32:55.111Z,2.72
2018-12-25T12:37:57.277Z,2.68
2018-12-25T12:42:59.712Z,2.88
2018-12-25T12:48:01.771Z,2.65
2018-12-25T12:53:04.173Z,2.79
2018-12-25T12:58:07.900Z,2.86
2018-12-25T13:03:09.945Z,2.64
2018-12-25T13:08:12.192Z,2.72
2018-12-25T13:13:14.231Z,2.80
2018-12-25T13:18:16.433Z,2.79
2018-12-25T13:23:18.420Z,2.90
2018-12-25T13:28:20.604Z,2.78
2018-12-25T13:33:22.967Z,2.84
2018-12-25T13:38:25.019Z,3.11
2018-12-25T13:43:27.132Z,3.06
2018-12-25T13:48:29.178Z,2.90
2018-12-25T13:53:31.570Z,2.92
2018-12-25T13:58:33.594Z,2.94
2018-12-25T14:03:35.654Z,2.92
2018-12-25T14:08:37.685Z,2.97
2018-12-25T14:13:39.653Z,2.94
2018-12-25T14:18:41.687Z,2.90
2018-12-25T14:23:43.748Z,2.92
2018-12-25T14:28:45.749Z,2.95
2018-12-25T14:33:47.777Z,2.87
2018-12-25T14:38:49.776Z,2.82
2018-12-25T14:43:51.743Z,2.80
2018-12-25T14:48:53.759Z,2.80
2018-12-25T14:53:55.775Z,2.87
2018-12-25T14:58:58.067Z,2.81
2018-12-25T15:04:00.119Z,2.79
2018-12-25T15:09:03.827Z,2.71
2018-12-25T15:14:05.832Z,2.77
2018-12-25T15:19:07.878Z,2.79
2018-12-25T15:24:09.856Z,2.82
2018-12-25T15:29:11.877Z,2.77
2018-12-25T15:34:13.900Z,2.69
2018-12-25T15:39:15.988Z,2.66
2018-12-25T15:44:18.029Z,2.63
2018-12-25T15:49:20.084Z,2.58
2018-12-25T15:54:22.306Z,2.57
2018-12-25T15:59:24.504Z,2.58
2018-12-25T16:04:26.532Z,2.62
2018-12-25T16:09:28.580Z,2.57
2018-12-25T16:14:30.582Z,2.52
2018-12-25T16:19:32.553Z,2.53
2018-12-25T16:24:34.591Z,2.53
2018-12-25T16:29:36.755Z,2.49
2018-12-25T16:34:38.862Z,2.49
2018-12-25T16:39:40.891Z,2.56
2018-12-25T16:44:43.351Z,2.56
2018-12-25T16:49:45.331Z,2.55
2018-12-25T16:54:47.432Z,2.53
2018-12-25T16:59:49.778Z,2.48
2018-12-25T17:04:52.047Z,2.49
2018-12-25T17:09:54.078Z,2.50
2018-12-25T17:14:56.311Z,2.58
2018-12-25T17:19:58.314Z,2.57
2018-12-25T17:25:00.821Z,2.55
2018-12-25T17:30:03.697Z,2.55
2018-12-25T17:35:06.081Z,2.57
2018-12-25T17:40:08.298Z,2.56
2018-12-25T17:45:10.330Z,2.71
2018-12-25T17:50:12.722Z,2.71
2018-12-25T17:55:15.365Z,2.75
2018-12-25T18:00:17.353Z,2.79
2018-12-25T18:05:19.390Z,2.81
2018-12-25T18:10:23.212Z,2.79
2018-12-25T18:15:25.270Z,2.81
2018-12-25T18:20:27.329Z,2.79
2018-12-25T18:25:29.812Z,2.74
2018-12-25T18:30:31.764Z,2.75
2018-12-25T18:35:34.173Z,2.71
2018-12-25T18:40:36.232Z,2.65
2018-12-25T18:45:38.206Z,2.57
2018-12-25T18:50:40.306Z,2.62
2018-12-25T18:55:42.366Z,2.56
2018-12-25T19:00:45.273Z,2.44
2018-12-25T19:05:47.467Z,2.30
2018-12-25T19:10:49.550Z,2.25
2018-12-25T19:15:54.575Z,2.29
2018-12-25T19:20:56.966Z,2.22
2018-12-25T19:25:59.025Z,2.30
2018-12-25T19:31:01.359Z,2.37
2018-12-25T19:36:03.586Z,2.36
2018-12-25T19:41:05.593Z,2.41
2018-12-25T19:46:07.660Z,2.40
2018-12-25T19:51:09.741Z,2.39
2018-12-25T19:56:12.041Z,2.42
2018-12-25T20:01:14.405Z,2.35
2018-12-25T20:07:16.791Z,2.39
2018-12-25T20:13:00.947Z,2.38
2018-12-25T20:18:47.786Z,2.28
2018-12-25T20:24:19.543Z,2.28
2018-12-25T20:30:00.335Z,2.21
2018-12-25T20:35:44.121Z,2.18
2018-12-25T20:41:29.471Z,2.10
2018-12-25T20:47:09.115Z,2.18
2018-12-25T20:52:57.341Z,2.09
2018-12-25T20:58:36.330Z,2.02
2018-12-25T21:04:21.950Z,1.97
2018-12-25T21:10:16.029Z,1.81
2018-12-25T21:16:02.543Z,1.83
2018-12-25T21:21:43.734Z,1.81
2018-12-25T21:27:22.338Z,1.77
2018-12-25T21:32:24.801Z,1.70
2018-12-25T21:37:28.914Z,1.75
2018-12-25T21:42:31.436Z,1.83
2018-12-25T21:47:33.760Z,1.89
2018-12-25T21:52:36.361Z,1.88
2018-12-25T21:57:38.842Z,1.90
2018-12-25T22:02:41.233Z,1.94
2018-12-25T22:07:43.291Z,1.91
2018-12-25T22:12:45.374Z,1.88
2018-12-25T22:17:47.435Z,1.73
2018-12-25T22:22:49.461Z,1.67
2018-12-25T22:27:51.689Z,1.72
2018-12-25T22:32:53.727Z,1.64
2018-12-25T22:37:55.756Z,1.66
2018-12-25T22:42:57.789Z,1.59
2018-12-25T22:47:59.897Z,1.51
2018-12-25T22:53:01.998Z,1.40
2018-12-25T22:58:04.300Z,1.39
2018-12-25T23:03:06.365Z,1.34
2018-12-25T23:08:08.731Z,1.26
2018-12-25T23:13:11.963Z,1.26
2018-12-25T23:18:14.143Z,1.13
2018-12-25T23:23:16.196Z,1.07
2018-12-25T23:28:18.273Z,1.07
2018-12-25T23:33:20.264Z,1.02
2018-12-25T23:38:22.427Z,0.89
2018-12-25T23:43:24.387Z,0.85
2018-12-25T23:48:26.451Z,0.74
2018-12-25T23:53:28.464Z,0.61
2018-12-25T23:58:30.610Z,0.81
